Time;durP1;ratioP1;P1;durP2;ratioP2;P2;SDS_P1;SDS_P2;PMS_P1;PMS_P2;Temp;Humidity;BMP_temperature;BMP_pressure;BME280_temperature;BME280_humidity;BME280_pressure;Samples;Min_cycle;Max_cycle;Signal;HPM_P1;HPM_P2
2023/05/24 00:01:31;;;;;;;3.23;1.83;;;11.20;99.90;11.20;100814.00;;;;4965407;28;110656;-69
2023/05/24 00:04:00;;;;;;;2.10;1.33;;;11.20;99.90;11.20;100824.00;;;;4965212;28;110027;-70
2023/05/24 00:06:26;;;;;;;3.53;2.47;;;11.20;99.90;11.20;100827.00;;;;4964162;28;88808;-70
2023/05/24 00:08:53;;;;;;;2.77;1.63;;;11.20;99.90;11.20;100816.00;;;;4970676;28;88773;-69
2023/05/24 00:11:21;;;;;;;2.03;1.40;;;11.20;99.90;11.20;100809.00;;;;4966354;28;87802;-70
2023/05/24 00:13:47;;;;;;;4.73;1.77;;;11.20;99.90;11.20;100824.00;;;;4968197;28;87849;-70
2023/05/24 00:16:13;;;;;;;2.17;1.50;;;11.20;99.90;11.20;100818.00;;;;4964286;28;89590;-69
2023/05/24 00:18:45;;;;;;;8.13;1.97;;;11.20;99.90;11.20;100824.00;;;;4967198;28;105282;-69
2023/05/24 00:21:12;;;;;;;6.90;1.83;;;11.20;99.90;11.10;100816.00;;;;4965205;28;89840;-69
2023/05/24 00:23:38;;;;;;;2.93;2.13;;;11.20;99.90;11.10;100815.00;;;;4951282;28;88202;-69
2023/05/24 00:26:05;;;;;;;4.57;2.07;;;11.20;99.90;11.10;100826.00;;;;4967957;28;109509;-69
2023/05/24 00:28:31;;;;;;;4.67;1.40;;;11.10;99.90;11.10;100820.00;;;;4964713;28;89004;-69
2023/05/24 00:30:57;;;;;;;2.50;1.70;;;11.10;99.90;11.10;100820.00;;;;4967365;28;110548;-69
2023/05/24 00:33:24;;;;;;;2.47;1.40;;;11.10;99.90;11.00;100821.00;;;;4967974;28;87153;-70
2023/05/24 00:35:55;;;;;;;2.53;1.90;;;11.10;99.90;11.00;100818.00;;;;4965783;28;88625;-70
2023/05/24 00:38:27;;;;;;;5.20;2.10;;;11.10;99.90;11.00;100820.00;;;;4965670;28;87996;-70
2023/05/24 00:40:58;;;;;;;2.50;1.90;;;11.00;99.90;10.90;100816.00;;;;4964835;28;109676;-70
2023/05/24 00:43:24;;;;;;;2.90;1.13;;;11.00;99.90;10.90;100811.00;;;;4952010;28;87849;-70
2023/05/24 00:46:14;;;;;;;4.10;2.73;;;10.90;99.90;10.90;100818.00;;;;4965980;28;97138;-70
2023/05/24 00:48:40;;;;;;;8.13;1.47;;;10.90;99.90;10.90;100816.00;;;;4954639;28;88240;-70
2023/05/24 00:51:06;;;;;;;2.53;1.87;;;10.90;99.90;10.90;100823.00;;;;4967054;28;87856;-70
2023/05/24 00:53:34;;;;;;;4.20;1.50;;;10.90;99.90;10.80;100822.00;;;;4966861;28;105522;-70
2023/05/24 00:56:01;;;;;;;2.00;1.70;;;10.90;99.90;10.80;100815.00;;;;4948879;28;88043;-71
2023/05/24 00:58:29;;;;;;;1.70;1.60;;;10.90;99.90;10.80;100819.00;;;;4951105;28;87539;-70
2023/05/24 01:00:59;;;;;;;3.80;1.63;;;10.90;99.90;10.90;100818.00;;;;4954210;28;88273;-70
2023/05/24 01:03:28;;;;;;;6.50;2.10;;;10.90;99.90;10.90;100823.00;;;;4955278;28;88055;-70
2023/05/24 01:05:57;;;;;;;4.20;1.13;;;10.90;99.90;10.80;100818.00;;;;4965244;28;88905;-69
2023/05/24 01:08:38;;;;;;;2.03;1.30;;;10.90;99.90;10.80;100827.00;;;;4955589;28;88177;-69
2023/05/24 01:11:26;;;;;;;1.33;1.23;;;10.90;99.90;10.80;100826.00;;;;4965538;28;87859;-69
2023/05/24 01:14:17;;;;;;;2.60;1.20;;;10.90;99.90;10.80;100824.00;;;;4937791;28;88034;-69
2023/05/24 01:17:03;;;;;;;2.10;1.50;;;10.80;99.90;10.70;100811.00;;;;4955230;28;88445;-69
2023/05/24 01:19:55;;;;;;;1.80;1.30;;;10.80;99.90;10.70;100829.00;;;;4934480;28;98436;-70
2023/05/24 01:22:52;;;;;;;1.83;1.07;;;10.80;99.90;10.70;100825.00;;;;4963873;28;101906;-69
2023/05/24 01:25:37;;;;;;;5.20;1.60;;;10.80;99.90;10.70;100820.00;;;;4954545;28;87157;-70
2023/05/24 01:28:05;;;;;;;2.87;1.67;;;10.80;99.90;10.70;100818.00;;;;4954663;28;87989;-70
2023/05/24 01:30:31;;;;;;;1.87;1.30;;;10.70;99.90;10.70;100830.00;;;;4950836;28;109286;-69
2023/05/24 01:32:57;;;;;;;2.63;0.93;;;10.70;99.90;10.60;100818.00;;;;4962975;28;110031;-69
2023/05/24 01:35:23;;;;;;;5.50;1.80;;;10.70;99.90;10.60;100829.00;;;;4950774;28;108369;-69
2023/05/24 01:37:49;;;;;;;2.30;1.43;;;10.70;99.90;10.60;100820.00;;;;4967154;28;116850;-71
2023/05/24 01:40:15;;;;;;;2.50;1.27;;;10.60;99.90;10.60;100827.00;;;;4967839;28;117566;-70
2023/05/24 01:43:22;;;;;;;5.10;1.73;;;10.60;99.90;10.50;100830.00;;;;4970859;28;87793;-70
2023/05/24 01:46:14;;;;;;;3.30;1.63;;;10.60;99.90;10.50;100826.00;;;;4907297;28;88707;-70
2023/05/24 01:48:51;;;;;;;7.53;1.83;;;10.60;99.90;10.40;100836.00;;;;4954402;28;88065;-70
2023/05/24 01:51:22;;;;;;;2.70;1.83;;;10.50;99.90;10.40;100827.00;;;;4974005;28;99780;-70
2023/05/24 01:53:49;;;;;;;3.30;2.57;;;10.50;99.90;10.40;100822.00;;;;4990317;28;96420;-70
2023/05/24 01:56:16;;;;;;;3.13;1.43;;;10.50;99.90;10.40;100832.00;;;;4984359;28;88281;-70
2023/05/24 01:58:45;;;;;;;2.40;1.70;;;10.20;99.90;10.30;100826.00;;;;4965640;28;89614;-70
2023/05/24 02:01:14;;;;;;;1.50;0.97;;;10.30;99.90;10.30;100831.00;;;;4982520;28;103169;-71
2023/05/24 02:03:40;;;;;;;3.23;1.63;;;10.30;99.90;10.20;100824.00;;;;4981062;28;87802;-71
2023/05/24 02:06:07;;;;;;;1.93;1.27;;;10.30;99.90;10.20;100826.00;;;;4984292;28;88088;-70
2023/05/24 02:08:32;;;;;;;5.07;1.20;;;10.20;99.90;10.10;100827.00;;;;4983613;28;88225;-70
2023/05/24 02:10:58;;;;;;;3.20;1.60;;;10.20;99.90;10.10;100830.00;;;;4983026;28;117009;-71
2023/05/24 02:13:24;;;;;;;4.20;0.83;;;10.20;99.90;10.00;100821.00;;;;4983671;28;110086;-72
2023/05/24 02:15:52;;;;;;;1.17;0.83;;;10.10;99.90;10.00;100826.00;;;;4985722;28;87004;-69
2023/05/24 02:18:18;;;;;;;3.60;1.27;;;10.00;99.90;9.90;100834.00;;;;4985030;28;89212;-71
2023/05/24 02:20:44;;;;;;;2.77;1.77;;;10.00;99.90;9.90;100831.00;;;;4981595;28;88036;-72
2023/05/24 02:23:09;;;;;;;1.23;0.97;;;10.00;99.90;9.80;100843.00;;;;4984332;28;88963;-71
2023/05/24 02:25:35;;;;;;;5.30;1.47;;;9.90;99.90;9.80;100834.00;;;;4985443;28;108271;-72
2023/05/24 02:28:01;;;;;;;2.27;2.00;;;9.90;99.90;9.70;100831.00;;;;4983924;28;88064;-72
2023/05/24 02:30:27;;;;;;;5.07;1.97;;;9.80;99.90;9.70;100830.00;;;;4983853;28;88841;-72
2023/05/24 02:32:52;;;;;;;1.40;1.17;;;9.80;99.90;9.70;100828.00;;;;4984764;28;96403;-70
2023/05/24 02:35:19;;;;;;;1.33;1.13;;;9.70;99.90;9.70;100836.00;;;;4984268;28;108978;-71
2023/05/24 02:37:44;;;;;;;1.80;1.40;;;9.70;99.90;9.60;100843.00;;;;4984862;28;88704;-71
2023/05/24 02:40:11;;;;;;;7.90;1.90;;;9.70;99.90;9.60;100844.00;;;;4985564;28;87657;-71
2023/05/24 02:42:40;;;;;;;2.33;1.47;;;9.60;99.90;9.60;100835.00;;;;4984896;28;87857;-71
2023/05/24 02:45:06;;;;;;;6.97;2.03;;;9.60;99.90;9.60;100829.00;;;;4985138;28;88089;-71
2023/05/24 02:47:32;;;;;;;1.63;1.17;;;9.60;99.90;9.60;100839.00;;;;4985508;28;89267;-72
2023/05/24 02:49:58;;;;;;;3.43;2.10;;;9.60;99.90;9.60;100843.00;;;;4978884;27;118374;-71
2023/05/24 02:52:23;;;;;;;2.30;1.60;;;9.60;99.90;9.60;100828.00;;;;4967808;28;110090;-71
2023/05/24 02:54:49;;;;;;;4.17;1.53;;;9.70;99.90;9.60;100829.00;;;;4964214;28;108725;-71
2023/05/24 02:57:15;;;;;;;1.37;1.10;;;9.60;99.90;9.60;100839.00;;;;4963614;28;88048;-70
2023/05/24 02:59:42;;;;;;;14.67;2.33;;;9.60;99.90;9.60;100838.00;;;;4948992;28;88002;-71
2023/05/24 03:02:07;;;;;;;1.83;1.17;;;9.70;99.90;9.60;100831.00;;;;4931958;28;87980;-71
2023/05/24 03:04:33;;;;;;;2.33;1.27;;;9.60;99.90;9.50;100825.00;;;;4964364;28;108268;-71
2023/05/24 03:06:59;;;;;;;2.80;1.30;;;9.60;99.90;9.50;100827.00;;;;4961389;28;117735;-71
2023/05/24 03:09:25;;;;;;;1.57;1.37;;;9.60;99.90;9.50;100830.00;;;;4951270;28;88165;-71
2023/05/24 03:11:53;;;;;;;3.13;1.40;;;9.60;99.90;9.40;100825.00;;;;4977213;28;89089;-72
2023/05/24 03:14:21;;;;;;;2.27;1.23;;;9.50;99.90;9.40;100822.00;;;;4967524;28;87932;-72
2023/05/24 03:16:47;;;;;;;5.43;1.20;;;9.50;99.90;9.30;100827.00;;;;4968314;28;89027;-71
2023/05/24 03:19:15;;;;;;;1.70;1.50;;;9.40;99.90;9.30;100829.00;;;;4964127;28;109576;-71
2023/05/24 03:21:41;;;;;;;2.10;1.53;;;9.40;99.90;9.30;100829.00;;;;4967790;28;88053;-71
2023/05/24 03:24:08;;;;;;;1.87;1.23;;;9.40;99.90;9.20;100833.00;;;;4950061;28;87819;-71
2023/05/24 03:26:34;;;;;;;4.10;1.73;;;9.40;99.90;9.20;100844.00;;;;4965739;28;89304;-71
2023/05/24 03:28:59;;;;;;;3.30;1.10;;;9.40;99.90;9.20;100845.00;;;;4963883;28;117853;-71
2023/05/24 03:31:25;;;;;;;1.43;1.27;;;9.30;99.90;9.20;100839.00;;;;4966810;28;88264;-71
2023/05/24 03:33:51;;;;;;;4.77;1.67;;;9.30;99.90;9.20;100848.00;;;;4970285;28;91933;-71
2023/05/24 03:36:17;;;;;;;4.63;1.50;;;9.30;99.90;9.20;100843.00;;;;4954324;28;118361;-72
2023/05/24 03:38:43;;;;;;;7.73;1.77;;;9.30;99.90;9.30;100839.00;;;;4937680;28;91014;-71
2023/05/24 03:41:08;;;;;;;2.10;1.27;;;9.30;99.90;9.30;100834.00;;;;4949582;28;87854;-71
2023/05/24 03:43:34;;;;;;;1.73;1.37;;;9.30;99.90;9.30;100844.00;;;;4964287;28;108788;-71
2023/05/24 03:46:00;;;;;;;2.57;1.67;;;9.40;99.90;9.30;100851.00;;;;4946066;28;116825;-71
2023/05/24 03:48:25;;;;;;;6.07;1.80;;;9.40;99.90;9.30;100848.00;;;;4966070;28;117440;-70
2023/05/24 03:50:51;;;;;;;1.57;1.23;;;9.40;99.90;9.30;100847.00;;;;4965484;28;110994;-70
2023/05/24 03:53:17;;;;;;;3.37;1.87;;;9.40;99.90;9.20;100852.00;;;;4952316;28;101458;-69
2023/05/24 03:55:43;;;;;;;5.37;2.20;;;9.30;99.90;9.20;100844.00;;;;4968992;28;117160;-70
2023/05/24 03:58:08;;;;;;;1.77;1.50;;;9.30;99.90;9.20;100862.00;;;;4968778;28;89507;-70
2023/05/24 04:00:34;;;;;;;8.77;2.13;;;9.30;99.90;9.20;100856.00;;;;4964569;28;88901;-70
2023/05/24 04:03:00;;;;;;;3.80;2.07;;;9.30;99.90;9.20;100859.00;;;;4953448;28;87948;-71
2023/05/24 04:05:28;;;;;;;2.13;1.93;;;9.30;99.90;9.20;100855.00;;;;4969285;28;87876;-70
2023/05/24 04:07:54;;;;;;;6.87;1.40;;;9.30;99.90;9.30;100861.00;;;;4966017;28;87885;-71
2023/05/24 04:10:20;;;;;;;3.53;1.40;;;9.30;99.90;9.30;100862.00;;;;4951375;28;87945;-70
2023/05/24 04:12:45;;;;;;;3.13;1.67;;;9.30;99.90;9.30;100871.00;;;;4963995;28;107778;-71
2023/05/24 04:15:14;;;;;;;1.87;1.50;;;9.40;99.90;9.30;100875.00;;;;4967782;28;108861;-70
2023/05/24 04:17:43;;;;;;;2.40;1.23;;;9.30;99.90;9.30;100879.00;;;;4967651;28;88647;-71
2023/05/24 04:20:12;;;;;;;6.17;1.30;;;9.40;99.90;9.30;100880.00;;;;4966637;28;87669;-70
2023/05/24 04:22:39;;;;;;;4.83;2.30;;;9.40;99.90;9.40;100879.00;;;;4968010;28;87845;-69
2023/05/24 04:25:06;;;;;;;6.77;1.20;;;9.50;99.90;9.40;100884.00;;;;4962222;28;108289;-69
2023/05/24 04:27:31;;;;;;;3.57;1.77;;;9.40;99.90;9.50;100884.00;;;;4968095;28;88551;-71
2023/05/24 04:29:58;;;;;;;4.23;1.23;;;9.50;99.90;9.50;100889.00;;;;4968369;28;109423;-70
2023/05/24 04:32:25;;;;;;;2.80;1.47;;;9.50;99.90;9.50;100887.00;;;;4967614;28;109987;-71
2023/05/24 04:34:51;;;;;;;4.87;1.50;;;9.50;99.90;9.50;100892.00;;;;4969326;28;88163;-71
2023/05/24 04:37:17;;;;;;;1.77;1.07;;;9.60;99.90;9.50;100898.00;;;;4969769;28;88320;-70
2023/05/24 04:39:44;;;;;;;1.50;1.20;;;9.60;99.90;9.60;100899.00;;;;4970212;28;87984;-71
2023/05/24 04:42:14;;;;;;;1.97;1.40;;;9.60;99.90;9.60;100894.00;;;;4968612;28;87603;-71
2023/05/24 04:44:41;;;;;;;1.87;1.63;;;9.60;99.90;9.60;100894.00;;;;4941297;28;89722;-69
2023/05/24 04:47:07;;;;;;;3.10;1.70;;;9.70;99.90;9.60;100899.00;;;;4965794;28;87729;-70
2023/05/24 04:49:33;;;;;;;6.53;1.20;;;9.70;99.90;9.60;100897.00;;;;4963068;28;89013;-71
2023/05/24 04:51:59;;;;;;;2.73;1.17;;;9.70;99.90;9.70;100915.00;;;;4974904;27;89768;-71
2023/05/24 04:54:24;;;;;;;1.20;1.10;;;9.70;99.90;9.80;100905.00;;;;5005182;27;88480;-71
2023/05/24 04:56:50;;;;;;;2.93;1.43;;;9.80;99.90;9.80;100900.00;;;;4985911;27;98145;-70
2023/05/24 04:59:16;;;;;;;5.77;1.50;;;9.80;99.90;9.90;100910.00;;;;5006954;27;87755;-70
2023/05/24 05:01:42;;;;;;;7.37;1.53;;;9.90;99.90;10.00;100915.00;;;;5009141;27;88922;-71
2023/05/24 05:04:08;;;;;;;1.53;1.43;;;10.00;99.90;10.10;100918.00;;;;5004224;27;117485;-71
2023/05/24 05:06:37;;;;;;;1.20;0.80;;;10.00;99.90;10.10;100923.00;;;;5007935;27;117892;-69
2023/05/24 05:09:13;;;;;;;4.37;1.27;;;10.10;99.90;10.10;100921.00;;;;5004531;27;88149;-71
2023/05/24 05:11:39;;;;;;;2.17;1.43;;;10.10;99.90;10.20;100915.00;;;;4994497;27;88913;-69
2023/05/24 05:14:05;;;;;;;2.53;2.10;;;10.20;99.90;10.20;100923.00;;;;5009145;27;89379;-71
2023/05/24 05:16:31;;;;;;;3.87;1.13;;;10.20;99.90;10.20;100929.00;;;;5011620;27;88929;-71
2023/05/24 05:18:57;;;;;;;4.00;1.73;;;10.20;99.90;10.30;100932.00;;;;5009749;27;87672;-70
2023/05/24 05:21:23;;;;;;;5.50;1.97;;;10.30;99.90;10.30;100927.00;;;;5009894;27;87737;-70
2023/05/24 05:23:48;;;;;;;3.77;1.17;;;10.30;99.90;10.30;100937.00;;;;5005785;27;110237;-71
2023/05/24 05:26:14;;;;;;;2.13;1.27;;;10.30;99.90;10.40;100936.00;;;;5006611;27;118011;-71
2023/05/24 05:28:40;;;;;;;1.33;1.23;;;10.40;99.90;10.40;100947.00;;;;4987433;27;109906;-72
2023/05/24 05:31:05;;;;;;;2.73;1.63;;;10.40;99.90;10.50;100939.00;;;;5005345;27;108788;-72
2023/05/24 05:33:31;;;;;;;3.17;1.57;;;10.50;99.90;10.60;100946.00;;;;4979102;27;90557;-70
2023/05/24 05:35:57;;;;;;;4.43;1.60;;;10.60;99.90;10.70;100943.00;;;;5005738;27;88059;-71
2023/05/24 05:38:23;;;;;;;3.60;1.20;;;10.60;99.90;10.70;100947.00;;;;4989265;27;109996;-72
2023/05/24 05:40:48;;;;;;;1.90;0.97;;;10.70;99.90;10.80;100949.00;;;;5003307;27;108950;-72
2023/05/24 05:43:20;;;;;;;1.90;0.90;;;10.80;99.90;10.80;100955.00;;;;4990443;27;91945;-71
2023/05/24 05:45:46;;;;;;;6.57;2.00;;;10.80;99.90;10.90;100951.00;;;;5007416;27;88604;-70
2023/05/24 05:48:12;;;;;;;1.90;1.50;;;10.90;99.90;11.00;100959.00;;;;5007667;27;110168;-71
2023/05/24 05:50:37;;;;;;;2.47;1.40;;;11.00;99.90;11.10;100961.00;;;;5002872;27;108846;-70
2023/05/24 05:53:03;;;;;;;5.90;1.43;;;11.10;99.90;11.20;100968.00;;;;4994123;28;117631;-71
2023/05/24 05:55:28;;;;;;;2.37;1.63;;;11.10;99.90;11.20;100957.00;;;;4986288;28;117536;-71
2023/05/24 05:57:54;;;;;;;7.77;1.47;;;11.20;99.90;11.30;100953.00;;;;4984515;27;110625;-71
2023/05/24 06:00:21;;;;;;;2.90;1.47;;;11.30;99.90;11.40;100950.00;;;;4980707;27;109729;-70
2023/05/24 06:02:47;;;;;;;1.90;1.23;;;11.40;99.90;11.50;100960.00;;;;4984766;28;91621;-72
2023/05/24 06:05:12;;;;;;;3.63;1.70;;;11.50;99.90;11.60;100953.00;;;;4984296;28;117847;-72
2023/05/24 06:07:38;;;;;;;8.00;1.37;;;11.50;99.90;11.60;100955.00;;;;4983793;28;109942;-70
2023/05/24 06:10:05;;;;;;;1.73;1.10;;;11.60;99.90;11.70;100964.00;;;;4984771;28;88026;-71
2023/05/24 06:12:30;;;;;;;2.03;1.53;;;11.70;99.90;11.80;100967.00;;;;4984184;28;88453;-72
2023/05/24 06:14:56;;;;;;;2.80;1.27;;;11.70;99.90;11.90;100969.00;;;;4981702;28;88178;-71
2023/05/24 06:17:23;;;;;;;4.47;1.50;;;11.80;99.90;12.00;100970.00;;;;4986748;28;88215;-71
2023/05/24 06:19:53;;;;;;;2.83;1.37;;;11.90;99.90;12.00;100971.00;;;;4987089;28;87347;-70
2023/05/24 06:22:23;;;;;;;1.93;1.13;;;12.00;99.90;12.00;100959.00;;;;4987106;28;87897;-72
2023/05/24 06:24:48;;;;;;;1.87;1.50;;;12.00;99.90;12.10;100971.00;;;;4984066;28;116389;-71
2023/05/24 06:27:14;;;;;;;3.30;1.57;;;12.00;99.90;12.10;100968.00;;;;4983227;28;109884;-70
2023/05/24 06:29:40;;;;;;;2.40;1.63;;;12.10;99.90;12.20;100971.00;;;;4985923;28;87872;-71
2023/05/24 06:32:05;;;;;;;1.23;0.97;;;12.20;99.90;12.30;100967.00;;;;4989315;28;88179;-69
2023/05/24 06:34:31;;;;;;;5.17;1.83;;;12.30;99.90;12.30;100965.00;;;;4983493;28;88784;-70
2023/05/24 06:36:57;;;;;;;3.27;1.43;;;12.30;99.90;12.30;100969.00;;;;4980736;28;110744;-70
2023/05/24 06:39:24;;;;;;;3.07;1.80;;;12.30;99.90;12.40;100984.00;;;;4985613;28;87956;-70
2023/05/24 06:41:50;;;;;;;1.73;1.63;;;12.30;99.90;12.40;100985.00;;;;4988495;28;89213;-71
2023/05/24 06:44:16;;;;;;;4.10;1.53;;;12.40;99.90;12.50;100971.00;;;;4989125;28;87641;-71
2023/05/24 06:46:42;;;;;;;1.80;1.13;;;12.40;99.90;12.50;100985.00;;;;4984430;28;95774;-71
2023/05/24 06:49:08;;;;;;;6.13;2.13;;;12.50;99.90;12.60;100989.00;;;;4985410;27;108175;-72
2023/05/24 06:51:33;;;;;;;3.17;1.33;;;12.50;99.90;12.60;100986.00;;;;4985751;28;117140;-71
2023/05/24 06:53:59;;;;;;;2.27;1.27;;;12.70;99.90;12.60;100990.00;;;;4987232;28;118587;-71
2023/05/24 06:56:25;;;;;;;2.63;1.47;;;12.60;99.90;12.70;100985.00;;;;4985051;27;88048;-70
2023/05/24 06:58:51;;;;;;;5.13;2.10;;;12.60;99.90;12.70;100994.00;;;;4988228;27;87894;-71
2023/05/24 07:01:17;;;;;;;3.83;1.43;;;12.50;99.90;12.70;101002.00;;;;4986746;28;117805;-71
2023/05/24 07:03:43;;;;;;;3.33;1.63;;;12.60;99.90;12.70;101008.00;;;;4985997;28;87732;-70
2023/05/24 07:06:12;;;;;;;4.67;1.53;;;12.60;99.90;12.70;101013.00;;;;4984343;28;110181;-71
2023/05/24 07:08:40;;;;;;;1.73;1.27;;;12.60;99.90;12.70;101008.00;;;;4987588;28;87201;-71
2023/05/24 07:11:06;;;;;;;1.97;1.23;;;12.60;99.90;12.80;101020.00;;;;4993054;28;88161;-72
2023/05/24 07:13:32;;;;;;;3.87;1.27;;;12.70;99.90;12.90;101013.00;;;;4986649;28;98508;-72
2023/05/24 07:15:58;;;;;;;3.53;1.00;;;12.80;99.90;13.00;101017.00;;;;4988150;28;104514;-71
2023/05/24 07:18:24;;;;;;;3.50;1.33;;;12.90;99.90;13.00;101013.00;;;;4986326;28;108460;-72
2023/05/24 07:20:50;;;;;;;0.93;0.80;;;12.90;99.90;13.20;101026.00;;;;4989087;28;88203;-71
2023/05/24 07:23:16;;;;;;;2.37;1.43;;;13.00;99.90;13.20;101035.00;;;;4985341;28;88542;-72
2023/05/24 07:25:41;;;;;;;1.80;1.23;;;13.10;99.90;13.20;101025.00;;;;4986410;28;87705;-71
2023/05/24 07:28:07;;;;;;;1.70;1.27;;;13.10;99.90;13.10;101029.00;;;;4984829;28;109848;-70
2023/05/24 07:30:33;;;;;;;1.87;1.10;;;13.10;99.90;13.00;101025.00;;;;4988171;28;89018;-71
2023/05/24 07:32:59;;;;;;;2.67;1.93;;;13.00;99.90;13.00;101041.00;;;;4988792;28;88795;-71
2023/05/24 07:35:25;;;;;;;2.23;1.40;;;13.00;99.90;13.00;101032.00;;;;4988635;28;87832;-71
2023/05/24 07:37:51;;;;;;;2.83;1.30;;;13.00;99.90;13.00;101034.00;;;;4985689;28;87824;-72
2023/05/24 07:40:17;;;;;;;3.13;2.33;;;12.90;99.90;13.00;101040.00;;;;4984352;28;118254;-72
2023/05/24 07:42:42;;;;;;;1.30;1.20;;;13.00;99.90;13.00;101032.00;;;;4987529;28;106973;-70
2023/05/24 07:45:09;;;;;;;5.07;1.70;;;13.00;99.90;13.00;101035.00;;;;4985580;28;88172;-71
2023/05/24 07:47:36;;;;;;;2.83;1.43;;;12.90;99.90;13.00;101034.00;;;;4988011;28;87634;-70
2023/05/24 07:50:02;;;;;;;6.07;1.60;;;12.90;99.90;12.90;101046.00;;;;4983881;28;88919;-71
2023/05/24 07:52:28;;;;;;;8.87;2.43;;;12.90;99.60;12.80;101044.00;;;;4991046;28;87979;-71
2023/05/24 07:54:54;;;;;;;1.90;1.67;;;12.80;99.10;12.80;101038.00;;;;4986273;28;87697;-70
2023/05/24 07:57:20;;;;;;;3.80;1.77;;;12.70;99.20;12.70;101044.00;;;;4984948;27;109796;-71
2023/05/24 07:59:45;;;;;;;6.83;1.83;;;12.70;99.60;12.70;101037.00;;;;4986416;28;116093;-71
2023/05/24 08:02:12;;;;;;;1.97;1.13;;;12.70;99.40;12.80;101041.00;;;;4986709;28;117825;-70
2023/05/24 08:04:39;;;;;;;3.60;1.80;;;12.70;99.30;12.80;101046.00;;;;4986684;28;88817;-70
2023/05/24 08:07:05;;;;;;;2.67;1.10;;;12.70;99.30;12.80;101052.00;;;;4988510;28;87924;-70
2023/05/24 08:09:35;;;;;;;3.00;1.47;;;12.80;99.00;12.90;101046.00;;;;4986033;28;89082;-72
2023/05/24 08:12:05;;;;;;;4.30;1.63;;;12.80;98.80;13.00;101044.00;;;;4985324;28;89071;-71
2023/05/24 08:14:31;;;;;;;3.87;1.30;;;12.90;98.80;13.10;101047.00;;;;4987682;28;103677;-71
2023/05/24 08:16:59;;;;;;;1.83;1.37;;;12.90;98.60;13.20;101048.00;;;;4988387;28;108808;-70
2023/05/24 08:19:26;;;;;;;11.27;1.73;;;13.10;98.40;13.30;101044.00;;;;4987448;28;88525;-71
2023/05/24 08:21:54;;;;;;;2.70;1.40;;;13.20;97.90;13.40;101047.00;;;;4988910;28;88951;-71
2023/05/24 08:24:20;;;;;;;4.50;2.33;;;13.20;97.50;13.40;101052.00;;;;4991407;28;87941;-70
2023/05/24 08:26:45;;;;;;;4.40;1.23;;;13.30;97.10;13.40;101042.00;;;;4985700;27;89791;-71
2023/05/24 08:29:16;;;;;;;5.50;1.93;;;13.30;96.70;13.50;101047.00;;;;4990751;28;89283;-71
2023/05/24 08:31:42;;;;;;;4.77;1.60;;;13.40;96.40;13.50;101037.00;;;;4983948;28;90082;-71
2023/05/24 08:34:07;;;;;;;10.13;1.93;;;13.40;96.40;13.60;101049.00;;;;4985157;28;110767;-70
2023/05/24 08:36:33;;;;;;;1.90;1.47;;;13.50;95.70;13.60;101052.00;;;;4988265;28;87955;-71
2023/05/24 08:38:59;;;;;;;3.80;2.20;;;13.50;95.20;13.60;101060.00;;;;4990797;28;116774;-71
2023/05/24 08:41:26;;;;;;;4.33;2.07;;;13.50;94.30;13.50;101063.00;;;;4985214;28;89837;-69
2023/05/24 08:43:54;;;;;;;2.70;1.50;;;13.50;93.50;13.40;101063.00;;;;4987017;28;87788;-70
2023/05/24 08:46:21;;;;;;;1.90;1.37;;;13.40;93.20;13.40;101071.00;;;;4989496;28;87099;-69
2023/05/24 08:48:47;;;;;;;4.60;2.10;;;13.40;93.40;13.30;101061.00;;;;4985213;28;118204;-71
2023/05/24 08:51:16;;;;;;;5.87;1.97;;;13.30;93.20;13.20;101064.00;;;;4990093;27;88189;-69
2023/05/24 08:53:48;;;;;;;10.00;2.23;;;13.20;93.10;13.10;101062.00;;;;4989244;27;111296;-71
2023/05/24 08:56:17;;;;;;;4.87;2.07;;;13.10;93.30;13.10;101067.00;;;;4972526;27;87577;-70
2023/05/24 08:58:44;;;;;;;3.03;1.57;;;13.10;93.30;13.10;101065.00;;;;4985167;27;88997;-70
2023/05/24 09:01:12;;;;;;;3.60;1.93;;;13.00;93.30;13.00;101076.00;;;;4968862;27;88676;-70
2023/05/24 09:03:40;;;;;;;1.73;1.63;;;13.00;93.10;13.00;101067.00;;;;4974319;28;88193;-70
2023/05/24 09:06:08;;;;;;;4.10;1.80;;;13.00;93.40;13.10;101077.00;;;;4969394;27;88055;-70
2023/05/24 09:08:36;;;;;;;7.33;2.53;;;13.00;93.50;13.10;101070.00;;;;4975174;27;96180;-69
2023/05/24 09:11:03;;;;;;;3.40;1.67;;;13.10;93.60;13.30;101071.00;;;;4986503;27;88682;-72
2023/05/24 09:13:30;;;;;;;4.73;2.23;;;13.20;93.60;13.40;101078.00;;;;4974209;27;109186;-71
2023/05/24 09:15:58;;;;;;;6.43;1.97;;;13.30;93.50;13.50;101076.00;;;;4975020;27;89116;-70
2023/05/24 09:18:24;;;;;;;7.50;1.80;;;13.30;92.90;13.50;101086.00;;;;4975766;27;88959;-70
2023/05/24 09:20:50;;;;;;;7.43;2.10;;;13.40;92.30;13.60;101082.00;;;;4984251;27;118902;-70
2023/05/24 09:23:16;;;;;;;2.37;1.40;;;13.50;92.30;13.70;101083.00;;;;4987988;27;112070;-71
2023/05/24 09:25:46;;;;;;;5.03;2.20;;;13.60;92.30;13.80;101084.00;;;;4986705;27;101325;-71
2023/05/24 09:28:17;;;;;;;2.30;1.40;;;13.70;92.50;14.00;101084.00;;;;4987565;27;117900;-70
2023/05/24 09:30:45;;;;;;;1.98;1.35;;;13.90;92.20;14.10;101081.00;;;;4987241;27;88000;-71
2023/05/24 09:33:12;;;;;;;3.90;1.90;;;14.00;91.70;14.10;101073.00;;;;4975721;27;87884;-68
2023/05/24 09:35:42;;;;;;;3.03;1.23;;;14.00;91.30;14.10;101073.00;;;;4990386;27;87170;-69
2023/05/24 09:38:17;;;;;;;2.10;1.33;;;14.00;91.00;14.20;101075.00;;;;4987411;27;88266;-70
2023/05/24 09:41:07;;;;;;;2.60;1.33;;;14.10;90.40;14.20;101085.00;;;;4987863;27;89089;-70
2023/05/24 09:43:35;;;;;;;1.20;1.10;;;14.10;90.60;14.40;101074.00;;;;4987021;27;89006;-70
2023/05/24 09:46:04;;;;;;;5.10;1.83;;;14.20;90.80;14.50;101073.00;;;;4971497;27;88078;-70
2023/05/24 09:48:30;;;;;;;2.00;1.23;;;14.40;90.70;14.70;101082.00;;;;4988797;27;88067;-70
2023/05/24 09:51:10;;;;;;;2.72;1.83;;;14.50;90.70;14.90;101085.00;;;;4974540;28;88861;-70
2023/05/24 09:53:36;;;;;;;2.33;1.58;;;14.70;90.20;15.10;101089.00;;;;4985136;28;87963;-70
2023/05/24 09:56:08;;;;;;;6.38;1.92;;;14.80;90.10;15.10;101091.00;;;;4982578;27;87635;-69
2023/05/24 09:58:35;;;;;;;10.27;2.70;;;15.00;88.50;15.10;101104.00;;;;4988847;27;88533;-70
2023/05/24 10:01:17;;;;;;;1.65;1.55;;;15.00;88.00;15.10;101096.00;;;;4986781;28;88852;-70
2023/05/24 10:03:57;;;;;;;1.20;0.98;;;15.00;87.50;15.10;101099.00;;;;4991089;28;87940;-69
2023/05/24 10:06:24;;;;;;;6.65;1.80;;;15.00;87.40;15.20;101096.00;;;;4985971;28;87845;-69
2023/05/24 10:08:50;;;;;;;3.70;2.42;;;15.00;87.20;15.20;101109.00;;;;4983439;28;89505;-69
2023/05/24 10:11:17;;;;;;;3.67;1.42;;;15.10;85.90;15.20;101107.00;;;;4990097;28;87796;-70
2023/05/24 10:13:43;;;;;;;2.67;1.40;;;15.00;85.00;15.30;101100.00;;;;4985905;28;87660;-71
2023/05/24 10:16:09;;;;;;;4.03;2.15;;;15.10;85.80;15.50;101092.00;;;;4989686;28;109090;-71
2023/05/24 10:18:35;;;;;;;1.77;1.15;;;15.30;85.90;15.80;101089.00;;;;4984402;28;87918;-71
2023/05/24 10:21:07;;;;;;;5.88;1.63;;;15.60;85.70;16.10;101091.00;;;;4982723;28;117153;-71
2023/05/24 10:23:33;;;;;;;4.22;1.58;;;15.80;85.00;16.50;101091.00;;;;4988092;28;88029;-72
2023/05/24 10:26:07;;;;;;;3.33;1.67;;;16.20;84.30;16.80;101093.00;;;;4986549;28;87081;-71
2023/05/24 10:28:55;;;;;;;2.50;1.77;;;16.50;82.80;17.10;101092.00;;;;4988848;28;88300;-71
2023/05/24 10:31:28;;;;;;;5.55;2.22;;;16.80;81.50;17.30;101095.00;;;;4988169;28;88034;-70
2023/05/24 10:33:57;;;;;;;2.38;1.55;;;17.00;81.10;17.60;101095.00;;;;4985799;28;88859;-71
2023/05/24 10:36:25;;;;;;;5.07;1.85;;;17.20;78.40;17.80;101093.00;;;;4986945;28;103450;-71
2023/05/24 10:38:51;;;;;;;1.33;1.23;;;17.40;77.50;18.20;101088.00;;;;4987731;28;87907;-71
2023/05/24 10:41:18;;;;;;;1.50;1.35;;;17.80;77.00;18.70;101080.00;;;;4984522;28;88049;-71
2023/05/24 10:43:47;;;;;;;1.38;1.00;;;18.20;75.10;19.10;101078.00;;;;4983595;28;87537;-69
2023/05/24 10:46:16;;;;;;;2.08;1.05;;;18.60;70.20;19.30;101088.00;;;;4990222;28;88133;-70
2023/05/24 10:48:42;;;;;;;3.38;1.88;;;18.80;68.40;19.40;101093.00;;;;4986489;28;88424;-70
2023/05/24 10:51:35;;;;;;;6.35;1.83;;;19.00;65.30;19.30;101099.00;;;;4981960;28;102136;-70